Terminal Aerodrome Forecast
Issued by NWS

Home | Current Version | Previous Version | Text Only | Print | Product List | Glossary On
Versions: 1 2 3 4 5 6 7 8 9 10 11 12 13 14 15 16 17
000
FTAK31 PAFA 270528
TAFATA
TAF
PATA 270528Z 2706/2806 27007KT P6SM BKN022 BKN027 OVC070
     FM271500 22004KT 4SM -SN OVC050
     FM272100 26004KT 2SM -SN OVC025
     FM280000 28007KT 4SM BR VCSH BKN050=

USA.gov is the U.S. government's official web portal to all federal, state and local government web resources and services.